Time;durP1;ratioP1;P1;durP2;ratioP2;P2;SDS_P1;SDS_P2;PMS_P1;PMS_P2;Temp;Humidity;BMP_temperature;BMP_pressure;BME280_temperature;BME280_humidity;BME280_pressure;Samples;Min_cycle;Max_cycle;Signal;HPM_P1;HPM_P2
2022/06/19 13:53:39;;;;;;;0.45;0.30;;;;;;;22.11;100.00;101320.94;4927078;28;20492;-44
2022/06/19 13:59:06;;;;;;;4.85;1.45;;;;;;;22.53;84.50;101321.63;5068905;27;20420;-70
2022/06/19 14:01:42;;;;;;;3.28;1.13;;;;;;;22.77;76.51;101322.59;5073036;28;20043;-70
2022/06/19 14:04:47;;;;;;;4.97;1.40;;;;;;;22.75;71.81;101313.03;5049186;28;20036;-69
2022/06/19 14:07:52;;;;;;;10.80;1.38;;;;;;;22.58;70.17;101322.44;5064961;28;20055;-70
2022/06/19 14:10:55;;;;;;;10.13;1.70;;;;;;;22.53;70.27;101330.69;5055683;28;20060;-70
2022/06/19 14:13:42;;;;;;;4.40;1.00;;;;;;;22.80;69.39;101337.72;5050093;28;20591;-70
2022/06/19 14:16:20;;;;;;;6.00;1.50;;;;;;;23.04;65.43;101333.19;5069385;28;20074;-70
2022/06/19 14:19:03;;;;;;;5.75;1.15;;;;;;;23.25;61.33;101325.63;5071829;28;20469;-76
2022/06/19 14:22:02;;;;;;;7.45;1.48;;;;;;;22.93;60.52;101331.63;5070860;28;20035;-63
2022/06/19 14:24:56;;;;;;;5.88;1.40;;;;;;;22.17;62.65;101340.16;5043635;28;20044;-67
2022/06/19 14:27:40;;;;;;;;;;;;;;;21.72;63.70;101339.91;5044143;28;20044;-57
2022/06/19 14:30:18;;;;;;;9.07;1.40;;;;;;;20.91;69.85;101335.97;5062919;28;19924;-58
2022/06/19 14:32:43;;;;;;;6.93;1.38;;;;;;;20.77;70.59;101334.03;5051717;28;20052;-57
2022/06/19 14:35:08;;;;;;;6.45;1.60;;;;;;;20.26;74.99;101335.44;5066730;28;20077;-59
2022/06/19 14:37:43;;;;;;;4.93;1.05;;;;;;;19.98;78.42;101330.34;5055097;28;20037;-56
2022/06/19 14:40:23;;;;;;;4.30;1.42;;;;;;;19.71;83.50;101333.97;5068101;28;20084;-58
2022/06/19 14:42:51;;;;;;;4.15;1.30;;;;;;;19.75;88.59;101345.22;5065152;28;20182;-58
2022/06/19 14:45:20;;;;;;;6.07;1.38;;;;;;;19.60;88.46;101323.22;5051416;28;20028;-52
2022/06/19 14:47:58;;;;;;;4.30;1.17;;;;;;;19.47;93.87;101327.19;5032451;28;20668;-59
2022/06/19 14:50:23;;;;;;;9.65;1.58;;;;;;;19.41;98.81;101340.00;5061674;28;20393;-58
2022/06/19 14:53:07;;;;;;;4.93;1.10;;;;;;;19.35;94.05;101341.03;5063822;28;20055;-56
2022/06/19 14:55:39;;;;;;;;;;;;;;;19.33;95.56;101353.31;5064768;28;20114;-58
2022/06/19 14:58:15;;;;;;;5.70;1.08;;;;;;;19.21;95.92;101359.75;5069278;28;19925;-58
2022/06/19 15:00:46;;;;;;;5.35;1.00;;;;;;;18.96;93.16;101343.13;5063741;28;20147;-78
2022/06/19 15:03:28;;;;;;;5.38;1.13;;;;;;;18.82;99.33;101345.41;5039440;28;20064;-78
2022/06/19 15:05:56;;;;;;;3.58;0.95;;;;;;;18.79;100.00;101362.31;5036783;28;20792;-78
2022/06/19 15:08:29;;;;;;;4.28;1.00;;;;;;;18.68;100.00;101355.88;5036473;28;20032;-77
2022/06/19 15:10:57;;;;;;;;;;;;;;;18.65;100.00;101341.91;5021522;28;21027;-77
2022/06/19 15:13:38;;;;;;;6.53;1.00;;;;;;;18.59;99.94;101349.19;5037083;28;20396;-77
2022/06/19 15:16:18;;;;;;;3.00;1.05;;;;;;;18.49;100.00;101332.69;5037556;28;20024;-77
2022/06/19 15:18:48;;;;;;;4.03;1.00;;;;;;;18.45;100.00;101304.28;5037439;28;20953;-77
2022/06/19 15:21:25;;;;;;;3.97;1.10;;;;;;;18.43;100.00;101296.38;5015989;28;20059;-77
2022/06/19 15:23:51;;;;;;;5.50;1.30;;;;;;;18.33;100.00;101268.97;5032237;28;20035;-77
2022/06/19 15:26:19;;;;;;;4.63;1.23;;;;;;;18.26;100.00;101235.59;5016945;28;20024;-77
2022/06/19 15:28:45;;;;;;;6.47;0.88;;;;;;;18.11;100.00;101214.41;5041548;28;20025;-77
2022/06/19 15:31:19;;;;;;;5.80;1.42;;;;;;;17.94;100.00;101265.47;5054199;28;20135;-77
2022/06/19 15:33:48;;;;;;;6.35;1.73;;;;;;;17.91;100.00;101342.28;5009058;28;20067;-77
2022/06/19 15:36:16;;;;;;;7.65;2.00;;;;;;;17.80;100.00;101368.53;5054459;28;20066;-76
2022/06/19 15:39:04;;;;;;;6.55;1.60;;;;;;;17.61;100.00;101403.31;5055583;28;20040;-76
2022/06/19 15:41:38;;;;;;;8.75;1.70;;;;;;;17.36;100.00;101425.47;5054521;28;21035;-76
2022/06/19 15:44:19;;;;;;;10.45;1.35;;;;;;;17.22;100.00;101405.91;5052976;28;20075;-77
2022/06/19 15:47:03;;;;;;;11.32;2.03;;;;;;;17.07;100.00;101372.94;5033880;28;20033;-78
2022/06/19 15:49:30;;;;;;;11.80;3.22;;;;;;;17.04;100.00;101366.09;5061486;28;20165;-78
2022/06/19 15:51:59;;;;;;;9.15;2.58;;;;;;;17.04;100.00;101370.72;5020589;28;20032;-79
2022/06/19 15:54:24;;;;;;;10.55;2.72;;;;;;;16.99;100.00;101363.28;5035752;28;20029;-78
2022/06/19 15:56:52;;;;;;;11.65;1.98;;;;;;;16.99;100.00;101355.13;5017934;28;20524;-79
2022/06/19 15:59:21;;;;;;;9.73;2.03;;;;;;;16.93;100.00;101318.81;5046571;28;20047;-78
2022/06/19 16:01:59;;;;;;;8.38;1.73;;;;;;;16.77;100.00;101295.09;5058481;28;20024;-79
2022/06/19 16:04:33;;;;;;;8.57;1.88;;;;;;;16.70;100.00;101316.97;5030035;28;20851;-79
2022/06/19 16:07:08;;;;;;;7.25;1.55;;;;;;;16.64;100.00;101325.28;5037289;28;20025;-79
2022/06/19 16:09:51;;;;;;;9.02;2.80;;;;;;;16.59;100.00;101281.66;5059851;28;20090;-80
2022/06/19 16:12:23;;;;;;;6.57;1.95;;;;;;;16.52;100.00;101245.63;5040828;28;20119;-79
2022/06/19 16:14:48;;;;;;;6.60;2.00;;;;;;;16.37;100.00;101203.47;5020235;28;20110;-79
2022/06/19 16:17:17;;;;;;;8.95;2.42;;;;;;;16.23;100.00;101177.66;5025514;28;20131;-78
2022/06/19 16:19:42;;;;;;;8.80;2.95;;;;;;;16.13;100.00;101188.31;5045031;28;20032;-80
2022/06/19 16:22:26;;;;;;;7.88;2.08;;;;;;;16.07;100.00;101211.81;5043386;28;20033;-80
2022/06/19 16:25:05;;;;;;;11.77;2.20;;;;;;;16.18;100.00;101234.59;5036144;28;20032;-78
2022/06/19 16:27:33;;;;;;;12.45;2.20;;;;;;;16.35;100.00;101238.22;5038194;28;20055;-79
2022/06/19 16:30:00;;;;;;;8.48;2.20;;;;;;;16.70;100.00;101235.34;5033945;28;20025;-79
2022/06/19 16:32:29;;;;;;;5.03;1.75;;;;;;;17.46;100.00;101196.09;5062301;28;20380;-79
2022/06/19 16:46:29;;;;;;;9.68;1.83;;;;;;;20.05;100.00;101246.16;5056178;28;20031;-80
2022/06/19 16:48:55;;;;;;;9.77;2.10;;;;;;;20.83;100.00;101261.78;5033087;28;20602;-79
2022/06/19 16:51:22;;;;;;;5.80;1.88;;;;;;;21.14;100.00;101240.72;5034638;28;20028;-80
2022/06/19 16:53:51;;;;;;;7.82;1.48;;;;;;;21.06;100.00;101222.91;5040590;28;20082;-80
2022/06/19 16:56:28;;;;;;;5.95;1.60;;;;;;;20.76;100.00;101200.97;5037523;28;20025;-79
2022/06/19 16:58:55;;;;;;;7.57;1.95;;;;;;;-145.76;100.00;65039.31;5022498;28;20063;-82
2022/06/19 17:01:37;;;;;;;8.88;2.22;;;;;;;-145.76;100.00;65039.31;5024340;28;20443;-80
2022/06/19 17:04:08;;;;;;;6.03;1.58;;;;;;;-145.76;100.00;65039.31;5028833;28;21102;-80
2022/06/19 17:06:37;;;;;;;7.60;1.60;;;;;;;-145.76;100.00;65039.31;5033165;28;20126;-80
2022/06/19 17:09:17;;;;;;;7.80;1.90;;;;;;;-145.76;100.00;65039.31;5040138;28;20687;-81
2022/06/19 17:11:47;;;;;;;7.55;1.73;;;;;;;-145.76;100.00;65039.31;5033726;28;20048;-78
2022/06/19 17:14:18;;;;;;;4.80;1.38;;;;;;;-145.76;100.00;65039.31;5028947;28;20032;-79
2022/06/19 17:16:56;;;;;;;7.53;1.80;;;;;;;-145.76;100.00;65039.31;5046536;28;20082;-79
2022/06/19 17:19:28;;;;;;;7.95;1.88;;;;;;;-145.76;100.00;65039.31;5029390;28;20086;-80
2022/06/19 17:22:00;;;;;;;6.35;1.63;;;;;;;-145.76;100.00;65039.31;5022961;28;20033;-79
2022/06/19 17:24:28;;;;;;;11.55;1.85;;;;;;;-145.76;100.00;65039.31;5034069;28;20028;-79
2022/06/19 17:27:12;;;;;;;5.72;2.05;;;;;;;-145.76;100.00;65039.31;5035052;28;20043;-78
2022/06/19 17:29:44;;;;;;;11.27;2.00;;;;;;;-145.76;100.00;65039.31;5036474;28;20037;-80
2022/06/19 17:32:42;;;;;;;5.72;1.48;;;;;;;-145.76;100.00;65039.31;5028916;28;20029;-80
2022/06/19 17:35:26;;;;;;;8.75;1.98;;;;;;;-145.76;100.00;65039.31;5044475;28;20032;-79
2022/06/19 17:37:52;;;;;;;5.10;1.45;;;;;;;-145.76;100.00;65039.31;5047818;28;20141;-80
2022/06/19 17:40:21;;;;;;;7.35;2.00;;;;;;;-145.76;100.00;65039.31;5041059;28;20114;-79
2022/06/19 17:42:47;;;;;;;7.75;1.70;;;;;;;-145.76;100.00;65039.31;5028627;28;20029;-81
2022/06/19 17:45:19;;;;;;;8.60;1.75;;;;;;;-145.76;100.00;65039.31;5027255;28;20075;-81
2022/06/19 17:47:45;;;;;;;5.40;1.33;;;;;;;-145.76;100.00;65039.31;5036309;28;20430;-80
2022/06/19 17:50:31;;;;;;;7.25;1.73;;;;;;;-145.76;100.00;65039.31;5043648;28;20029;-82
2022/06/19 17:52:58;;;;;;;6.20;1.92;;;;;;;-145.76;100.00;65039.31;5024032;28;20056;-81
2022/06/19 17:55:32;;;;;;;9.95;2.10;;;;;;;-145.76;100.00;65039.31;5042158;28;20092;-80
2022/06/19 17:58:01;;;;;;;9.05;2.03;;;;;;;-145.76;100.00;65039.31;5057693;28;20053;-78
2022/06/19 18:00:28;;;;;;;7.13;2.15;;;;;;;-145.76;100.00;65039.31;5064595;28;20184;-78
2022/06/19 18:03:00;;;;;;;15.98;2.15;;;;;;;-145.76;100.00;65039.31;5032700;28;20047;-81
2022/06/19 18:05:43;;;;;;;7.75;2.03;;;;;;;-145.76;100.00;65039.31;5040034;28;20029;-81
2022/06/19 18:08:22;;;;;;;7.00;1.65;;;;;;;-145.76;100.00;65039.31;5031828;28;20060;-81
2022/06/19 18:10:53;;;;;;;9.18;2.30;;;;;;;-145.76;100.00;65039.31;5039328;28;20032;-81
2022/06/19 18:13:25;;;;;;;8.45;1.95;;;;;;;-145.76;100.00;65039.31;5059742;28;20058;-81
2022/06/19 18:18:45;;;;;;;9.85;2.15;;;;;;;-145.76;100.00;65039.31;5045352;28;20098;-81
2022/06/19 18:21:20;;;;;;;8.60;2.13;;;;;;;-145.76;100.00;65039.31;5045865;28;20025;-81
2022/06/19 18:24:05;;;;;;;10.05;2.60;;;;;;;-145.76;100.00;65039.31;5046657;28;20021;-81
2022/06/19 18:26:33;;;;;;;12.68;2.25;;;;;;;-145.76;100.00;65039.31;5067256;28;20059;-81
2022/06/19 18:29:01;;;;;;;10.95;2.15;;;;;;;-145.76;100.00;65039.31;5042132;28;20029;-81
2022/06/19 18:31:26;;;;;;;7.40;2.15;;;;;;;-145.76;100.00;65039.31;5056807;28;20060;-81
2022/06/19 18:33:52;;;;;;;10.70;2.00;;;;;;;-145.76;100.00;65039.31;5052243;28;20035;-81
2022/06/19 18:36:18;;;;;;;14.93;2.55;;;;;;;-145.76;100.00;65039.31;5046528;28;20044;-80
2022/06/19 18:38:45;;;;;;;11.25;2.67;;;;;;;-145.76;100.00;65039.31;5033016;28;20053;-80
2022/06/19 18:41:11;;;;;;;10.70;2.13;;;;;;;-145.76;100.00;65039.31;5038258;28;20045;-82
2022/06/19 18:43:37;;;;;;;11.48;2.30;;;;;;;-145.76;100.00;65039.31;5042306;28;20458;-81
2022/06/19 18:46:05;;;;;;;7.93;1.83;;;;;;;-145.76;100.00;65039.31;5030976;28;20612;-81
2022/06/19 18:48:30;;;;;;;8.63;2.13;;;;;;;-145.76;100.00;65039.31;5035791;28;20106;-80
2022/06/19 18:50:56;;;;;;;11.80;2.40;;;;;;;-145.76;100.00;65039.31;5036837;28;20033;-81
2022/06/19 18:53:27;;;;;;;9.48;2.10;;;;;;;-145.76;100.00;65039.31;5043502;28;20033;-81
2022/06/19 18:55:52;;;;;;;8.15;2.33;;;;;;;-145.76;100.00;65039.31;5044401;28;20309;-80
2022/06/19 18:58:24;;;;;;;10.38;3.08;;;;;;;-145.76;100.00;65039.31;5038229;28;20057;-79
2022/06/19 19:00:51;;;;;;;15.88;2.88;;;;;;;-145.76;100.00;65039.31;5023177;28;20048;-80
2022/06/19 19:03:17;;;;;;;12.93;2.60;;;;;;;-145.76;100.00;65039.31;5029379;28;20119;-80
2022/06/19 19:05:44;;;;;;;10.90;1.90;;;;;;;-145.76;100.00;65039.31;5015129;28;20045;-82
2022/06/19 19:08:19;;;;;;;14.00;2.55;;;;;;;-145.76;100.00;65039.31;5039086;28;20029;-79
2022/06/19 19:11:42;;;;;;;12.18;2.97;;;;;;;15.86;100.00;101338.25;5042551;28;20415;-69
2022/06/19 19:14:08;;;;;;;13.20;3.13;;;;;;;15.80;100.00;101349.25;5036953;28;20061;-70
2022/06/19 19:16:37;;;;;;;12.02;2.15;;;;;;;15.68;100.00;101343.78;5037770;28;20048;-70
2022/06/19 19:19:09;;;;;;;13.88;2.97;;;;;;;15.58;100.00;101341.63;5070527;28;20114;-70
2022/06/19 19:21:34;;;;;;;7.85;2.40;;;;;;;15.48;100.00;101325.94;5072405;28;20032;-70
2022/06/19 19:23:59;;;;;;;10.25;1.90;;;;;;;15.38;100.00;101328.38;5075926;28;20082;-69
2022/06/19 19:26:28;;;;;;;19.95;2.40;;;;;;;15.32;100.00;101328.47;5075654;28;20128;-69
2022/06/19 19:28:56;;;;;;;12.48;2.67;;;;;;;15.23;100.00;101323.41;5075690;28;20023;-69
2022/06/19 19:31:25;;;;;;;9.05;2.67;;;;;;;15.20;100.00;101345.56;5074652;28;20040;-69
2022/06/19 19:33:53;;;;;;;8.70;1.90;;;;;;;15.19;100.00;101334.94;5072801;28;20036;-69
2022/06/19 19:36:19;;;;;;;9.18;2.17;;;;;;;15.16;100.00;101338.09;5070911;28;20032;-68
2022/06/19 19:38:44;;;;;;;12.25;2.55;;;;;;;15.08;100.00;101346.56;5076770;28;20438;-68
2022/06/19 19:41:11;;;;;;;14.85;2.83;;;;;;;15.03;100.00;101337.25;5075984;28;20424;-68
2022/06/19 19:43:37;;;;;;;13.30;2.30;;;;;;;14.97;100.00;101337.34;5074517;28;20032;-68
2022/06/19 19:46:13;;;;;;;14.68;2.60;;;;;;;14.93;100.00;101331.53;5069870;28;20029;-68
2022/06/19 19:48:40;;;;;;;16.23;3.20;;;;;;;14.93;100.00;101344.28;5069870;28;20491;-68
2022/06/19 19:51:05;;;;;;;10.50;2.28;;;;;;;14.88;100.00;101344.97;5071793;28;20031;-68
2022/06/19 19:53:35;;;;;;;16.02;2.33;;;;;;;14.83;100.00;101346.72;5069146;28;20060;-68
2022/06/19 19:56:03;;;;;;;9.82;2.40;;;;;;;14.82;100.00;101343.19;5069891;28;20492;-68
2022/06/19 19:58:29;;;;;;;9.88;2.08;;;;;;;14.83;100.00;101333.97;5075633;28;20024;-68
2022/06/19 20:00:55;;;;;;;15.75;3.65;;;;;;;14.82;100.00;101329.63;5071304;28;20024;-68
2022/06/19 20:03:20;;;;;;;13.00;2.92;;;;;;;14.77;100.00;101334.88;5073015;28;20059;-68
2022/06/19 20:11:16;;;;;;;14.90;3.20;;;;;;;14.67;100.00;101334.59;5068823;28;20066;-68
2022/06/19 20:13:42;;;;;;;15.00;2.75;;;;;;;14.70;100.00;101331.44;5075629;28;20041;-68
2022/06/19 20:16:07;;;;;;;9.25;2.78;;;;;;;14.72;100.00;101332.03;5068638;28;20035;-70
2022/06/19 20:18:34;;;;;;;11.65;2.55;;;;;;;14.75;100.00;101342.44;5065824;28;20044;-71
2022/06/19 20:21:00;;;;;;;12.05;2.63;;;;;;;14.74;100.00;101352.47;5066344;28;20032;-68
2022/06/19 20:23:36;;;;;;;7.80;1.98;;;;;;;14.71;100.00;101342.06;5057548;28;20195;-68
2022/06/19 20:26:01;;;;;;;13.43;3.17;;;;;;;14.68;100.00;101342.50;5054178;28;20439;-68
2022/06/19 20:28:31;;;;;;;10.13;2.45;;;;;;;14.65;100.00;101342.16;5058587;28;20029;-69
2022/06/19 20:30:57;;;;;;;15.05;3.15;;;;;;;-145.76;100.00;65039.31;5052245;28;20114;-70
2022/06/19 20:33:28;;;;;;;15.48;2.95;;;;;;;-145.76;100.00;65039.31;5064216;28;20087;-72
2022/06/19 20:35:53;;;;;;;17.67;3.17;;;;;;;-145.76;100.00;65039.31;5071716;28;20040;-69
2022/06/19 20:38:25;;;;;;;15.57;2.90;;;;;;;-145.76;100.00;65039.31;5051636;28;20051;-69
2022/06/19 20:40:51;;;;;;;17.45;3.47;;;;;;;-145.76;100.00;65039.31;5058840;28;20447;-69
2022/06/19 20:43:17;;;;;;;15.07;3.30;;;;;;;-145.76;100.00;65039.31;5060504;28;20029;-69
2022/06/19 20:45:45;;;;;;;8.02;2.22;;;;;;;-145.76;100.00;65039.31;5059675;28;20049;-69
2022/06/19 20:48:13;;;;;;;18.40;3.08;;;;;;;-145.76;100.00;65039.31;5057010;28;20430;-69
2022/06/19 20:50:40;;;;;;;15.60;2.80;;;;;;;-145.76;100.00;65039.31;5061771;28;20024;-69
2022/06/19 20:53:07;;;;;;;12.45;2.70;;;;;;;-145.76;100.00;65039.31;5062005;28;20499;-69
2022/06/19 20:55:35;;;;;;;10.90;2.47;;;;;;;-145.76;100.00;65039.31;5054384;28;20035;-69
2022/06/19 20:58:01;;;;;;;16.48;2.45;;;;;;;-145.76;100.00;65039.31;5065541;28;20066;-69
2022/06/19 21:00:32;;;;;;;15.77;2.92;;;;;;;-145.76;100.00;65039.31;5058212;28;20394;-69
2022/06/19 21:02:58;;;;;;;13.30;2.85;;;;;;;-145.76;100.00;65039.31;5064481;28;20028;-69
2022/06/19 21:05:25;;;;;;;15.55;2.78;;;;;;;-145.76;100.00;65039.31;5058110;28;20479;-69
2022/06/19 21:07:53;;;;;;;11.50;2.28;;;;;;;-145.76;100.00;65039.31;5066430;28;20102;-69
2022/06/19 21:10:37;;;;;;;12.38;2.55;;;;;;;-145.76;100.00;65039.31;5056569;28;20040;-69
2022/06/19 21:13:03;;;;;;;;;;;;;;;-145.76;100.00;65039.31;5058398;28;20043;-69
2022/06/19 21:15:31;;;;;;;12.52;2.33;;;;;;;-145.76;100.00;65039.31;5062085;28;19967;-69
2022/06/19 21:17:56;;;;;;;13.45;2.30;;;;;;;-145.76;100.00;65039.31;5063706;28;20031;-69
2022/06/19 21:20:21;;;;;;;11.75;2.33;;;;;;;-145.76;100.00;65039.31;5057157;28;20465;-69
2022/06/19 21:22:49;;;;;;;20.20;2.75;;;;;;;-145.76;100.00;65039.31;5060848;28;20388;-69
2022/06/19 21:25:18;;;;;;;12.30;2.50;;;;;;;-145.76;100.00;65039.31;5058141;28;20031;-69
2022/06/19 21:27:48;;;;;;;13.27;2.17;;;;;;;-145.76;100.00;65039.31;5065263;28;20028;-70
2022/06/19 21:30:13;;;;;;;13.27;2.42;;;;;;;-145.76;100.00;65039.31;5057230;28;20025;-70
2022/06/19 21:32:39;;;;;;;12.80;2.22;;;;;;;-145.76;100.00;65039.31;5062042;28;20039;-69
2022/06/19 21:35:04;;;;;;;17.08;3.47;;;;;;;-145.76;100.00;65039.31;5060728;28;20154;-70
2022/06/19 21:37:30;;;;;;;14.13;2.83;;;;;;;-145.76;100.00;65039.31;5062441;28;20521;-70
2022/06/19 21:39:56;;;;;;;13.07;2.17;;;;;;;-145.76;100.00;65039.31;5062737;28;20039;-70
2022/06/19 21:42:21;;;;;;;11.75;2.00;;;;;;;-145.76;100.00;65039.31;5059737;28;20044;-70
2022/06/19 21:44:46;;;;;;;14.63;2.75;;;;;;;-145.76;100.00;65039.31;5061896;28;20027;-70
2022/06/19 21:47:12;;;;;;;9.98;2.53;;;;;;;-145.76;100.00;65039.31;5057552;28;20468;-70
2022/06/19 21:49:37;;;;;;;17.70;3.28;;;;;;;-145.76;100.00;65039.31;5063134;28;20040;-70
2022/06/19 21:52:03;;;;;;;13.70;2.78;;;;;;;-145.76;100.00;65039.31;5061315;28;20066;-70
2022/06/19 21:54:31;;;;;;;13.10;2.42;;;;;;;-145.76;100.00;65039.31;5058371;28;20198;-70
2022/06/19 21:56:56;;;;;;;14.15;2.78;;;;;;;-145.76;100.00;65039.31;5056412;28;20039;-70
2022/06/19 21:59:21;;;;;;;12.02;2.70;;;;;;;-145.76;100.00;65039.31;5061487;28;20417;-70
2022/06/19 22:01:52;;;;;;;15.55;3.15;;;;;;;-145.76;100.00;65039.31;5059588;28;20028;-70
2022/06/19 22:04:17;;;;;;;15.00;2.10;;;;;;;-145.76;100.00;65039.31;5063529;28;20040;-70
2022/06/19 22:06:44;;;;;;;19.58;4.40;;;;;;;-145.76;100.00;65039.31;5059003;28;20400;-69
2022/06/19 22:09:18;;;;;;;14.57;2.97;;;;;;;-145.76;100.00;65039.31;5061054;28;20127;-70
2022/06/19 22:14:28;;;;;;;;;;;;;;;-145.76;100.00;65039.31;5060459;28;20598;-69
2022/06/19 22:16:54;;;;;;;12.10;2.92;;;;;;;-145.76;100.00;65039.31;5064009;28;19924;-69
2022/06/19 22:19:20;;;;;;;11.18;2.40;;;;;;;-145.76;100.00;65039.31;5061744;28;20028;-70
2022/06/19 22:21:46;;;;;;;18.83;2.90;;;;;;;-145.76;100.00;65039.31;5058091;28;20056;-69
2022/06/19 22:24:24;;;;;;;12.48;3.33;;;;;;;-145.76;100.00;65039.31;5059069;28;20839;-69
2022/06/19 22:26:51;;;;;;;11.48;2.80;;;;;;;-145.76;100.00;65039.31;5062489;28;20844;-70
2022/06/19 22:29:17;;;;;;;11.95;2.58;;;;;;;-145.76;100.00;65039.31;5056753;28;20068;-69
2022/06/19 22:31:42;;;;;;;14.02;3.00;;;;;;;-145.76;100.00;65039.31;5062603;28;20032;-69
2022/06/19 22:34:09;;;;;;;12.68;3.05;;;;;;;-145.76;100.00;65039.31;5063642;28;20490;-69
2022/06/19 22:36:34;;;;;;;13.60;2.88;;;;;;;-145.76;100.00;65039.31;5059462;28;20134;-69
2022/06/19 22:39:23;;;;;;;15.60;3.58;;;;;;;-145.76;100.00;65039.31;5059990;28;20112;-69
2022/06/19 22:41:49;;;;;;;10.25;2.50;;;;;;;-145.76;100.00;65039.31;5062473;28;20021;-69
2022/06/19 22:44:25;;;;;;;13.32;3.17;;;;;;;-145.76;100.00;65039.31;5061290;28;20561;-69
2022/06/19 22:46:52;;;;;;;12.07;3.20;;;;;;;-145.76;100.00;65039.31;5058713;28;20044;-69
2022/06/19 22:49:18;;;;;;;10.63;2.85;;;;;;;-145.76;100.00;65039.31;5054214;28;20037;-69
2022/06/19 22:51:44;;;;;;;12.18;2.58;;;;;;;-145.76;100.00;65039.31;5061734;28;20040;-69
2022/06/19 22:54:10;;;;;;;14.90;3.28;;;;;;;-145.76;100.00;65039.31;5054232;28;20028;-70
2022/06/19 22:56:36;;;;;;;8.93;2.50;;;;;;;-145.76;100.00;65039.31;5061127;28;20028;-70
2022/06/19 23:01:46;;;;;;;16.55;3.67;;;;;;;-145.76;100.00;65039.31;5059316;28;20024;-69
2022/06/19 23:04:27;;;;;;;11.73;3.55;;;;;;;-145.76;100.00;65039.31;5061137;28;20025;-69
2022/06/19 23:06:53;;;;;;;12.82;2.83;;;;;;;-145.76;100.00;65039.31;5056959;28;20012;-69
2022/06/19 23:09:21;;;;;;;12.10;2.85;;;;;;;-145.76;100.00;65039.31;5061341;28;20024;-69
2022/06/19 23:11:47;;;;;;;7.70;2.38;;;;;;;-145.76;100.00;65039.31;5062462;28;20047;-69
2022/06/19 23:14:13;;;;;;;13.13;2.85;;;;;;;-145.76;100.00;65039.31;5057550;28;20039;-69
2022/06/19 23:16:52;;;;;;;12.15;2.88;;;;;;;-145.76;100.00;65039.31;5058773;28;20025;-69
2022/06/19 23:19:21;;;;;;;9.90;3.00;;;;;;;-145.76;100.00;65039.31;5057282;28;20809;-69
2022/06/19 23:21:47;;;;;;;11.45;3.08;;;;;;;-145.76;100.00;65039.31;5060356;28;20025;-69
2022/06/19 23:24:21;;;;;;;14.05;3.20;;;;;;;-145.76;100.00;65039.31;5054480;28;20146;-69
2022/06/19 23:26:54;;;;;;;11.13;2.40;;;;;;;-145.76;100.00;65039.31;5059563;28;20111;-69
2022/06/19 23:29:20;;;;;;;14.95;2.60;;;;;;;-145.76;100.00;65039.31;5061529;28;20128;-69
2022/06/19 23:31:45;;;;;;;13.55;2.55;;;;;;;-145.76;100.00;65039.31;5062525;28;20601;-69
2022/06/19 23:34:11;;;;;;;12.85;2.90;;;;;;;-145.76;100.00;65039.31;5053162;28;20082;-69
2022/06/19 23:36:39;;;;;;;17.83;3.15;;;;;;;-145.76;100.00;65039.31;5062609;28;20028;-69
2022/06/19 23:39:07;;;;;;;13.90;2.80;;;;;;;-145.76;100.00;65039.31;5045276;28;20081;-69
2022/06/19 23:41:32;;;;;;;17.38;3.15;;;;;;;-145.76;100.00;65039.31;5060484;28;20033;-69
2022/06/19 23:43:58;;;;;;;11.75;3.47;;;;;;;-145.76;100.00;65039.31;5059438;28;20031;-69
2022/06/19 23:46:26;;;;;;;15.02;2.80;;;;;;;-145.76;100.00;65039.31;5057489;28;20043;-69
2022/06/19 23:48:52;;;;;;;16.10;3.97;;;;;;;-145.76;100.00;65039.31;5055079;28;20056;-69
2022/06/19 23:51:19;;;;;;;12.00;3.17;;;;;;;-145.76;100.00;65039.31;5063857;28;20069;-69
2022/06/19 23:53:44;;;;;;;10.90;2.60;;;;;;;-145.76;100.00;65039.31;5057425;28;20032;-69
2022/06/19 23:56:10;;;;;;;12.75;3.00;;;;;;;-145.76;100.00;65039.31;5057412;28;20051;-69
2022/06/19 23:58:37;;;;;;;10.10;2.65;;;;;;;-145.76;100.00;65039.31;5057541;28;20048;-69
